Time;durP1;ratioP1;P1;durP2;ratioP2;P2;SDS_P1;SDS_P2;PMS_P1;PMS_P2;Temp;Humidity;BMP_temperature;BMP_pressure;BME280_temperature;BME280_humidity;BME280_pressure;Samples;Min_cycle;Max_cycle;Signal;HPM_P1;HPM_P2
2023/11/15 00:00:32;;;;;;;6.70;2.55;;;9.70;99.90;;;;;;4915801;29;20500;-76
2023/11/15 00:03:20;;;;;;;5.37;2.70;;;9.80;99.90;;;;;;4913735;29;20059;-76
2023/11/15 00:06:08;;;;;;;6.05;2.80;;;9.70;99.90;;;;;;4940945;29;20047;-77
2023/11/15 00:08:55;;;;;;;4.70;3.10;;;9.70;99.90;;;;;;4934239;29;20048;-77
2023/11/15 00:11:42;;;;;;;8.05;3.00;;;9.70;99.90;;;;;;4939762;29;20039;-76
2023/11/15 00:14:30;;;;;;;7.13;2.85;;;9.70;99.90;;;;;;4920154;29;20050;-76
2023/11/15 00:17:18;;;;;;;5.70;3.13;;;9.70;99.90;;;;;;4925938;29;20122;-77
2023/11/15 00:20:08;;;;;;;6.05;3.03;;;9.70;99.90;;;;;;4917178;29;20491;-76
2023/11/15 00:22:55;;;;;;;8.20;3.90;;;9.70;99.90;;;;;;4946328;29;20047;-77
2023/11/15 00:25:45;;;;;;;8.27;4.30;;;9.70;99.90;;;;;;4914163;29;20484;-77
2023/11/15 00:28:33;;;;;;;11.60;4.68;;;9.70;99.90;;;;;;4928978;29;20054;-76
2023/11/15 00:31:20;;;;;;;8.63;4.40;;;9.60;99.90;;;;;;4928791;29;20369;-77
2023/11/15 00:34:07;;;;;;;7.47;5.13;;;9.60;99.90;;;;;;4918955;29;20043;-76
2023/11/15 00:36:55;;;;;;;9.17;5.07;;;9.60;99.90;;;;;;4913188;29;20071;-76
2023/11/15 00:39:41;;;;;;;9.83;5.30;;;9.50;99.90;;;;;;4938103;29;20271;-76
2023/11/15 00:42:27;;;;;;;9.50;5.68;;;9.50;99.90;;;;;;4840873;29;2099378;-77
2023/11/15 00:45:14;;;;;;;11.35;5.70;;;9.60;99.90;;;;;;4932282;29;20082;-76
2023/11/15 00:48:01;;;;;;;8.90;5.07;;;9.50;99.90;;;;;;4929240;29;20046;-76
2023/11/15 00:50:49;;;;;;;10.33;6.13;;;9.60;99.90;;;;;;4927295;29;20043;-76
2023/11/15 00:53:36;;;;;;;11.43;5.80;;;9.50;99.90;;;;;;4918425;29;20090;-75
2023/11/15 00:56:23;;;;;;;10.90;5.15;;;9.50;99.90;;;;;;4931561;29;20098;-76
2023/11/15 00:59:11;;;;;;;14.18;6.05;;;9.60;99.90;;;;;;4898905;29;20487;-76
2023/11/15 01:01:58;;;;;;;12.57;5.73;;;9.50;99.90;;;;;;4911298;29;20036;-76
2023/11/15 01:04:46;;;;;;;12.50;5.80;;;9.50;99.90;;;;;;4925113;29;20040;-77
2023/11/15 01:07:33;;;;;;;13.13;5.07;;;9.60;99.90;;;;;;4913150;29;20126;-76
2023/11/15 01:10:20;;;;;;;14.02;5.82;;;9.60;99.90;;;;;;4909294;29;20043;-77
2023/11/15 01:13:06;;;;;;;18.15;5.78;;;9.60;99.90;;;;;;4941890;29;20041;-76
2023/11/15 01:15:53;;;;;;;13.45;5.95;;;9.70;99.90;;;;;;4930281;29;20356;-77
2023/11/15 01:18:40;;;;;;;12.93;6.43;;;9.60;99.90;;;;;;4930240;29;20094;-76
2023/11/15 01:21:27;;;;;;;11.35;4.95;;;9.70;99.90;;;;;;4930267;29;20682;-76
2023/11/15 01:24:16;;;;;;;12.70;5.05;;;9.60;99.90;;;;;;4931478;29;20031;-76
2023/11/15 01:27:03;;;;;;;12.07;4.63;;;9.70;99.90;;;;;;4925645;29;20036;-76
2023/11/15 01:29:51;;;;;;;10.80;4.87;;;9.70;99.90;;;;;;4921970;29;20074;-77
2023/11/15 01:32:38;;;;;;;11.38;4.07;;;9.60;99.90;;;;;;4930245;29;20369;-76
2023/11/15 01:35:26;;;;;;;8.95;3.70;;;9.60;99.90;;;;;;4917451;29;20110;-76
2023/11/15 01:38:15;;;;;;;13.00;3.92;;;9.60;99.90;;;;;;4937036;29;20089;-77
2023/11/15 01:41:05;;;;;;;12.60;3.40;;;9.60;99.90;;;;;;4913612;29;20388;-77
2023/11/15 01:43:52;;;;;;;8.73;3.90;;;9.70;99.90;;;;;;4937026;29;20043;-77
2023/11/15 01:46:40;;;;;;;9.55;3.20;;;9.60;99.90;;;;;;4923166;29;20035;-77
2023/11/15 01:49:27;;;;;;;12.93;3.80;;;9.60;99.90;;;;;;4941944;29;20050;-77
2023/11/15 01:52:14;;;;;;;7.03;3.10;;;9.60;99.90;;;;;;4929487;29;20416;-77
2023/11/15 01:55:00;;;;;;;7.80;2.85;;;9.60;99.90;;;;;;4915891;29;20501;-77
2023/11/15 01:57:47;;;;;;;9.90;2.88;;;9.60;99.90;;;;;;4936390;29;20427;-77
2023/11/15 02:00:35;;;;;;;10.18;3.60;;;9.60;99.90;;;;;;4943075;29;20083;-77
2023/11/15 02:03:24;;;;;;;10.98;2.80;;;9.60;99.90;;;;;;4929805;29;20102;-77
2023/11/15 02:06:11;;;;;;;11.10;3.85;;;9.60;99.90;;;;;;4939217;29;20045;-77
2023/11/15 02:08:59;;;;;;;10.35;3.60;;;9.60;99.90;;;;;;4930177;29;20043;-77
2023/11/15 02:11:46;;;;;;;10.38;3.33;;;9.60;99.90;;;;;;4916291;29;20047;-77
2023/11/15 02:14:34;;;;;;;10.50;2.97;;;9.60;99.90;;;;;;4937647;29;20114;-77
2023/11/15 02:17:22;;;;;;;11.60;2.93;;;9.70;99.90;;;;;;4897376;29;20364;-76
2023/11/15 02:20:10;;;;;;;11.05;2.78;;;9.60;99.90;;;;;;4912060;29;20392;-75
2023/11/15 02:22:57;;;;;;;10.90;3.58;;;9.60;99.90;;;;;;4956810;29;20039;-75
2023/11/15 02:25:44;;;;;;;10.15;2.50;;;9.60;99.90;;;;;;4918039;29;20512;-75
2023/11/15 02:28:32;;;;;;;10.65;2.92;;;9.60;99.90;;;;;;4930547;29;20052;-77
2023/11/15 02:31:18;;;;;;;9.48;2.72;;;9.60;99.90;;;;;;4924421;29;20126;-77
2023/11/15 02:34:05;;;;;;;9.25;2.47;;;9.60;99.90;;;;;;4924328;29;20066;-77
2023/11/15 02:36:51;;;;;;;7.50;2.53;;;9.60;99.90;;;;;;4929053;29;20203;-77
2023/11/15 02:39:40;;;;;;;10.25;2.47;;;9.60;99.90;;;;;;4929039;29;20099;-77
2023/11/15 02:42:27;;;;;;;7.10;1.95;;;9.60;99.90;;;;;;4920071;29;20087;-77
2023/11/15 02:45:16;;;;;;;10.77;2.37;;;9.60;99.90;;;;;;4924224;29;20457;-77
2023/11/15 02:48:04;;;;;;;10.13;2.22;;;9.60;99.90;;;;;;4912397;29;20263;-77
2023/11/15 02:50:51;;;;;;;7.82;2.20;;;9.60;99.90;;;;;;4912496;29;20047;-77
2023/11/15 02:53:39;;;;;;;7.03;2.42;;;9.60;99.90;;;;;;4910257;29;20047;-77
2023/11/15 02:56:26;;;;;;;9.32;3.00;;;9.60;99.90;;;;;;4911000;29;20039;-76
2023/11/15 02:59:13;;;;;;;9.52;2.92;;;9.60;99.90;;;;;;4929877;29;20058;-76
2023/11/15 03:02:00;;;;;;;7.88;3.30;;;9.50;99.90;;;;;;4914767;29;20047;-76
2023/11/15 03:04:48;;;;;;;9.65;4.13;;;9.50;99.90;;;;;;4937290;29;20416;-76
2023/11/15 03:07:35;;;;;;;9.45;4.57;;;9.40;99.90;;;;;;4943202;29;20074;-76
2023/11/15 03:10:21;;;;;;;5.72;2.50;;;9.40;99.90;;;;;;4929360;29;20124;-76
2023/11/15 03:13:08;;;;;;;8.10;2.28;;;9.30;99.90;;;;;;4918771;29;20107;-76
2023/11/15 03:15:57;;;;;;;4.78;1.88;;;9.30;99.90;;;;;;4942773;29;20049;-76
2023/11/15 03:18:46;;;;;;;6.35;1.70;;;9.10;99.90;;;;;;4954857;29;20432;-75
2023/11/15 03:21:33;;;;;;;5.60;1.63;;;9.10;99.90;;;;;;4929505;29;20035;-75
2023/11/15 03:24:20;;;;;;;5.13;1.58;;;9.00;99.90;;;;;;4943277;29;20473;-75
2023/11/15 03:27:08;;;;;;;3.83;1.80;;;8.90;99.90;;;;;;4930556;28;20408;-75
2023/11/15 03:29:55;;;;;;;4.80;1.93;;;8.80;99.90;;;;;;4946982;29;20047;-76
2023/11/15 03:32:43;;;;;;;6.80;1.60;;;8.80;99.90;;;;;;4914346;29;20074;-76
2023/11/15 03:35:31;;;;;;;4.38;1.77;;;8.70;99.90;;;;;;4930952;29;20350;-75
2023/11/15 03:38:19;;;;;;;3.83;2.28;;;8.60;99.90;;;;;;4932250;29;20047;-76
2023/11/15 03:41:06;;;;;;;3.58;2.10;;;8.50;99.90;;;;;;4930842;29;20051;-76
2023/11/15 03:43:54;;;;;;;3.30;1.83;;;8.50;99.90;;;;;;4941770;29;20558;-75
2023/11/15 03:46:41;;;;;;;8.02;2.30;;;8.50;99.90;;;;;;4946492;29;20043;-76
2023/11/15 03:49:29;;;;;;;6.30;2.25;;;8.40;99.90;;;;;;4927385;29;20054;-75
2023/11/15 03:52:15;;;;;;;6.07;2.00;;;8.40;99.90;;;;;;4921763;29;20035;-75
2023/11/15 03:55:01;;;;;;;4.00;2.25;;;8.40;99.90;;;;;;4931482;29;20134;-76
2023/11/15 03:57:47;;;;;;;5.07;3.00;;;8.30;99.90;;;;;;4946404;29;20039;-76
2023/11/15 04:00:34;;;;;;;3.63;2.38;;;8.40;99.90;;;;;;4952322;29;20067;-75
2023/11/15 04:03:21;;;;;;;5.72;2.03;;;8.40;99.90;;;;;;4927541;29;20043;-75
2023/11/15 04:06:09;;;;;;;5.60;2.20;;;8.30;99.90;;;;;;4900981;29;20508;-75
2023/11/15 04:08:58;;;;;;;;;;;8.40;99.90;;;;;;4913909;29;20127;-76
2023/11/15 04:11:45;;;;;;;5.95;1.92;;;8.30;99.90;;;;;;4912697;29;19922;-76
2023/11/15 04:14:34;;;;;;;5.20;1.67;;;8.30;99.90;;;;;;4927717;29;20071;-76
2023/11/15 04:17:21;;;;;;;5.95;2.58;;;8.30;99.90;;;;;;4914562;29;20035;-76
2023/11/15 04:20:08;;;;;;;6.38;1.55;;;8.40;99.90;;;;;;4918415;29;20043;-76
2023/11/15 04:22:56;;;;;;;3.08;1.38;;;8.30;99.90;;;;;;4931394;29;20130;-76
2023/11/15 04:25:44;;;;;;;3.45;1.23;;;8.30;99.90;;;;;;4932473;29;20040;-76
2023/11/15 04:28:31;;;;;;;3.63;1.30;;;8.40;99.90;;;;;;4927734;29;20368;-76
2023/11/15 04:31:17;;;;;;;4.70;1.35;;;8.40;99.90;;;;;;4913914;29;20495;-76
2023/11/15 04:34:05;;;;;;;2.72;1.50;;;8.40;99.90;;;;;;4912327;29;20168;-76
2023/11/15 04:36:52;;;;;;;3.42;1.48;;;8.30;99.90;;;;;;4912497;29;20366;-76
2023/11/15 04:39:39;;;;;;;14.15;1.98;;;8.30;99.90;;;;;;4925354;29;20122;-77
2023/11/15 04:42:27;;;;;;;6.75;1.85;;;8.30;99.90;;;;;;4932436;29;20488;-76
2023/11/15 04:45:14;;;;;;;4.47;1.60;;;8.30;99.90;;;;;;4902044;29;20386;-77
2023/11/15 04:48:01;;;;;;;4.50;1.83;;;8.20;99.90;;;;;;4910321;29;20180;-76
2023/11/15 04:50:50;;;;;;;3.55;1.75;;;8.20;99.90;;;;;;4938727;29;20040;-77
2023/11/15 04:53:37;;;;;;;4.68;2.42;;;8.20;99.90;;;;;;4921699;29;20032;-77
2023/11/15 04:56:24;;;;;;;5.50;2.10;;;8.30;99.90;;;;;;4914861;29;20035;-77
2023/11/15 04:59:12;;;;;;;3.72;2.08;;;8.30;99.90;;;;;;4923080;29;20279;-76
2023/11/15 05:02:00;;;;;;;6.70;2.25;;;8.30;99.90;;;;;;4926382;29;20163;-77
2023/11/15 05:04:47;;;;;;;4.63;1.90;;;8.30;99.90;;;;;;4926535;29;20485;-76
2023/11/15 05:07:36;;;;;;;3.10;1.60;;;8.20;99.90;;;;;;4944480;29;20042;-77
2023/11/15 05:10:24;;;;;;;4.32;2.00;;;8.20;99.90;;;;;;4899643;29;20492;-77
2023/11/15 05:13:11;;;;;;;4.45;1.55;;;8.20;99.90;;;;;;4931581;29;20035;-78
2023/11/15 05:16:03;;;;;;;3.30;2.03;;;8.20;99.90;;;;;;4943610;29;20042;-76
2023/11/15 05:18:51;;;;;;;4.70;2.10;;;8.20;99.90;;;;;;4924363;29;20036;-76
2023/11/15 05:21:38;;;;;;;3.65;2.00;;;8.20;99.90;;;;;;4912118;29;20659;-76
2023/11/15 05:24:25;;;;;;;4.63;2.00;;;8.30;99.90;;;;;;4912455;29;20040;-76
2023/11/15 05:27:13;;;;;;;4.55;2.08;;;8.20;99.90;;;;;;4938387;29;20043;-76
2023/11/15 05:30:01;;;;;;;5.07;2.30;;;8.20;99.90;;;;;;4911437;29;20083;-76
2023/11/15 05:32:48;;;;;;;4.75;2.20;;;8.20;99.90;;;;;;4926110;29;20440;-76
2023/11/15 05:35:35;;;;;;;6.53;3.13;;;8.30;99.90;;;;;;4931040;29;20035;-76
2023/11/15 05:38:24;;;;;;;7.07;3.33;;;8.30;99.90;;;;;;4943248;29;20326;-76
2023/11/15 05:41:11;;;;;;;;;;;8.30;99.90;;;;;;4925938;29;20299;-76
2023/11/15 05:43:59;;;;;;;9.20;4.10;;;8.30;99.90;;;;;;4912274;29;19914;-77
2023/11/15 05:46:46;;;;;;;9.50;5.05;;;8.40;99.90;;;;;;4935985;29;20073;-76
2023/11/15 05:49:32;;;;;;;12.23;6.22;;;8.40;99.90;;;;;;4943668;29;20039;-76
2023/11/15 05:52:18;;;;;;;15.63;6.10;;;8.30;99.90;;;;;;4912464;29;20044;-76
2023/11/15 05:55:07;;;;;;;9.63;5.53;;;8.40;99.90;;;;;;4942947;29;20038;-77
2023/11/15 05:57:54;;;;;;;7.57;4.80;;;8.40;99.90;;;;;;4939189;29;20046;-76
2023/11/15 06:00:42;;;;;;;9.45;4.38;;;8.40;99.90;;;;;;4911880;29;20457;-76
2023/11/15 06:03:29;;;;;;;9.35;4.75;;;8.30;99.90;;;;;;4912134;29;20040;-76
2023/11/15 06:06:17;;;;;;;9.70;5.78;;;8.30;99.90;;;;;;4900409;29;20465;-76
2023/11/15 06:09:05;;;;;;;13.02;5.78;;;8.30;99.90;;;;;;4917692;29;20079;-76
2023/11/15 06:11:52;;;;;;;10.40;5.85;;;8.20;99.90;;;;;;4933055;29;20040;-76
2023/11/15 06:14:40;;;;;;;10.23;6.07;;;8.30;99.90;;;;;;4927848;29;20125;-76
2023/11/15 06:17:28;;;;;;;12.30;5.60;;;8.30;99.90;;;;;;4943380;29;20042;-76
2023/11/15 06:20:16;;;;;;;6.88;5.18;;;8.30;99.90;;;;;;4925377;29;20044;-77
2023/11/15 06:23:03;;;;;;;7.33;3.83;;;8.30;99.90;;;;;;4912061;29;20520;-77
2023/11/15 06:25:50;;;;;;;9.40;4.78;;;8.30;99.90;;;;;;4925621;29;20876;-77
2023/11/15 06:28:38;;;;;;;14.40;6.50;;;8.40;99.90;;;;;;4921684;29;20122;-76
2023/11/15 06:31:25;;;;;;;10.18;5.18;;;8.40;99.90;;;;;;4910974;29;20054;-76
2023/11/15 06:34:12;;;;;;;10.02;5.10;;;8.40;99.90;;;;;;4943660;29;20043;-77
2023/11/15 06:36:59;;;;;;;7.97;4.60;;;8.30;99.90;;;;;;4930135;29;20049;-77
2023/11/15 06:39:48;;;;;;;10.85;5.22;;;8.30;99.90;;;;;;4930824;29;20052;-76
2023/11/15 06:42:36;;;;;;;10.50;4.60;;;8.30;99.90;;;;;;4945265;29;20115;-76
2023/11/15 06:45:22;;;;;;;6.45;4.22;;;8.20;99.90;;;;;;4914677;29;20052;-76
2023/11/15 06:48:11;;;;;;;11.75;4.28;;;8.20;99.90;;;;;;4911061;29;20050;-76
2023/11/15 06:50:58;;;;;;;12.60;4.50;;;8.20;99.90;;;;;;4931586;29;20510;-77
2023/11/15 06:53:46;;;;;;;7.75;4.18;;;8.20;99.90;;;;;;4925879;29;20122;-77
2023/11/15 06:56:33;;;;;;;8.07;3.95;;;8.10;99.90;;;;;;4942604;29;20086;-77
2023/11/15 06:59:21;;;;;;;9.68;4.55;;;8.20;99.90;;;;;;4920041;29;20795;-77
2023/11/15 07:02:08;;;;;;;5.93;3.70;;;8.20;99.90;;;;;;4901127;29;20040;-76
2023/11/15 07:04:55;;;;;;;9.45;4.05;;;8.20;99.90;;;;;;4938636;29;20047;-76
2023/11/15 07:07:42;;;;;;;8.32;4.18;;;8.20;99.90;;;;;;4926259;29;20130;-77
2023/11/15 07:10:29;;;;;;;6.30;3.30;;;8.20;99.90;;;;;;4941141;29;20043;-75
2023/11/15 07:13:16;;;;;;;7.82;4.40;;;8.10;99.90;;;;;;4944370;29;20114;-76
2023/11/15 07:16:05;;;;;;;8.77;4.38;;;8.20;99.90;;;;;;4928140;29;20368;-76
2023/11/15 07:18:52;;;;;;;6.93;4.07;;;8.20;99.90;;;;;;4948260;29;20046;-76
2023/11/15 07:21:39;;;;;;;14.23;5.20;;;8.20;99.90;;;;;;4930212;29;20067;-76
2023/11/15 07:24:27;;;;;;;8.20;5.28;;;8.30;99.90;;;;;;4942651;29;20061;-76
2023/11/15 07:27:17;;;;;;;;;;;8.20;99.90;;;;;;4927752;29;20036;-76
2023/11/15 07:30:07;;;;;;;13.13;6.40;;;8.30;99.90;;;;;;4927122;29;19921;-76
2023/11/15 07:32:54;;;;;;;9.60;5.05;;;8.30;99.90;;;;;;4947185;29;20097;-76
2023/11/15 07:35:42;;;;;;;11.90;5.45;;;8.30;99.90;;;;;;4926503;29;20074;-76
2023/11/15 07:38:29;;;;;;;13.30;6.30;;;8.40;99.90;;;;;;4914336;29;20040;-76
2023/11/15 07:41:18;;;;;;;12.38;5.97;;;8.40;99.90;;;;;;4926673;29;20294;-77
2023/11/15 07:44:06;;;;;;;11.27;6.47;;;8.40;99.90;;;;;;4950017;29;20437;-76
2023/11/15 07:46:54;;;;;;;11.18;5.70;;;8.30;99.90;;;;;;4950286;29;20058;-76
2023/11/15 07:49:42;;;;;;;11.27;6.15;;;8.30;99.90;;;;;;4932881;29;20046;-77
2023/11/15 07:52:30;;;;;;;11.33;6.10;;;8.40;99.90;;;;;;4932339;29;20379;-79
2023/11/15 07:55:17;;;;;;;13.00;6.28;;;8.40;99.90;;;;;;4920641;29;20302;-75
2023/11/15 07:58:06;;;;;;;11.73;6.60;;;8.40;99.90;;;;;;4919987;29;20074;-76
2023/11/15 08:00:54;;;;;;;13.82;7.40;;;8.40;99.90;;;;;;4945966;29;20373;-77
2023/11/15 08:03:41;;;;;;;13.07;6.28;;;8.40;99.90;;;;;;4928539;29;20055;-77
2023/11/15 08:06:29;;;;;;;11.52;7.13;;;8.50;99.90;;;;;;4927157;29;20196;-76
2023/11/15 08:09:26;;;;;;;11.70;6.40;;;8.50;99.90;;;;;;4928171;29;20047;-77
2023/11/15 08:12:14;;;;;;;12.43;6.28;;;8.60;99.90;;;;;;4932043;29;20071;-77
2023/11/15 08:15:05;;;;;;;10.48;5.32;;;8.60;99.90;;;;;;4912969;29;20036;-77
2023/11/15 08:17:52;;;;;;;9.82;5.22;;;8.60;99.90;;;;;;4922842;29;20477;-76
2023/11/15 08:20:43;;;;;;;11.65;5.63;;;8.60;99.90;;;;;;4926030;29;20035;-79
2023/11/15 08:23:31;;;;;;;9.45;5.55;;;8.70;99.90;;;;;;4902527;29;20075;-79
2023/11/15 08:26:21;;;;;;;10.90;5.50;;;8.70;99.90;;;;;;4908567;29;20051;-77
2023/11/15 08:29:08;;;;;;;9.93;5.97;;;8.70;99.90;;;;;;4948533;29;20047;-77
2023/11/15 08:31:57;;;;;;;9.55;5.70;;;8.70;99.90;;;;;;4934953;29;20381;-78
2023/11/15 08:34:44;;;;;;;15.20;7.00;;;8.70;99.90;;;;;;4912797;29;20090;-77
2023/11/15 08:37:31;;;;;;;14.50;5.83;;;8.70;99.90;;;;;;4926233;29;20122;-77
2023/11/15 08:40:22;;;;;;;11.43;5.82;;;8.70;99.90;;;;;;4921121;29;20279;-77
2023/11/15 08:43:11;;;;;;;11.13;7.00;;;8.70;99.90;;;;;;4939075;29;20432;-76
2023/11/15 08:46:01;;;;;;;10.82;6.55;;;8.70;99.90;;;;;;4930471;29;20043;-77
2023/11/15 08:48:51;;;;;;;13.57;6.65;;;8.70;99.90;;;;;;4932738;29;20054;-77
2023/11/15 08:51:40;;;;;;;12.65;6.60;;;8.80;99.90;;;;;;4938487;29;20117;-77
2023/11/15 08:54:28;;;;;;;12.60;6.30;;;8.80;99.90;;;;;;4912771;29;20035;-77
2023/11/15 08:57:15;;;;;;;12.35;7.28;;;8.80;99.90;;;;;;4927217;28;20051;-76
2023/11/15 09:00:03;;;;;;;13.57;6.43;;;8.80;99.90;;;;;;4950776;28;20058;-76
2023/11/15 09:02:50;;;;;;;10.30;6.00;;;8.80;99.90;;;;;;4918005;29;20372;-77
2023/11/15 09:05:37;;;;;;;11.10;7.13;;;8.80;99.90;;;;;;4918029;29;20050;-76
2023/11/15 09:08:24;;;;;;;11.63;6.45;;;8.80;99.90;;;;;;4927855;29;20047;-77
2023/11/15 09:11:13;;;;;;;12.80;6.75;;;8.90;99.90;;;;;;4921516;29;20043;-77
2023/11/15 09:14:00;;;;;;;13.88;6.78;;;8.90;99.90;;;;;;4916890;29;20050;-76
2023/11/15 09:16:47;;;;;;;15.23;6.97;;;8.90;99.90;;;;;;4911507;29;20059;-76
2023/11/15 09:19:34;;;;;;;15.45;7.22;;;8.90;99.90;;;;;;4930679;29;20054;-75
2023/11/15 09:22:22;;;;;;;12.87;6.27;;;9.00;99.90;;;;;;4909292;29;20043;-77
2023/11/15 09:25:14;;;;;;;15.32;7.40;;;9.00;99.90;;;;;;4949069;28;20039;-77
2023/11/15 09:28:02;;;;;;;13.55;6.65;;;8.90;99.90;;;;;;4931755;29;20130;-76
2023/11/15 09:30:52;;;;;;;15.35;6.57;;;9.00;99.90;;;;;;4929888;29;20079;-76
2023/11/15 09:33:40;;;;;;;10.43;6.75;;;9.00;99.90;;;;;;4921244;29;20066;-76
2023/11/15 09:36:26;;;;;;;11.40;6.82;;;9.00;99.90;;;;;;4924922;29;20040;-75
2023/11/15 09:39:16;;;;;;;13.18;5.88;;;9.00;99.90;;;;;;4949375;29;20082;-75
2023/11/15 09:42:03;;;;;;;13.40;6.03;;;9.10;99.90;;;;;;4922842;29;20063;-75
2023/11/15 09:44:51;;;;;;;11.73;6.55;;;9.00;99.90;;;;;;4899308;29;20040;-76
2023/11/15 09:47:40;;;;;;;13.38;6.78;;;9.00;99.90;;;;;;4934057;29;20041;-77
2023/11/15 09:50:33;;;;;;;15.02;6.50;;;9.10;99.90;;;;;;4929416;29;20051;-77
2023/11/15 09:53:20;;;;;;;14.50;6.35;;;9.10;99.90;;;;;;4919550;29;20516;-76
2023/11/15 09:56:08;;;;;;;16.23;5.88;;;9.10;99.90;;;;;;4934674;29;20046;-76
2023/11/15 09:58:57;;;;;;;11.47;5.57;;;9.10;99.90;;;;;;4943122;29;20444;-76
2023/11/15 10:01:46;;;;;;;10.02;5.65;;;9.10;99.90;;;;;;4943393;29;20039;-76
2023/11/15 10:04:34;;;;;;;10.48;5.25;;;9.20;99.90;;;;;;4942380;29;20051;-76
2023/11/15 10:07:26;;;;;;;11.90;5.00;;;9.20;99.90;;;;;;4930293;29;20031;-76
2023/11/15 10:10:21;;;;;;;14.48;5.05;;;9.20;99.90;;;;;;4931760;29;20472;-76
2023/11/15 10:13:21;;;;;;;10.85;4.65;;;9.20;99.90;;;;;;4931407;29;20047;-76
2023/11/15 10:16:39;;;;;;;14.93;6.25;;;9.20;99.90;;;;;;4900895;29;20043;-76
2023/11/15 10:19:27;;;;;;;11.90;4.63;;;9.20;99.90;;;;;;4928960;29;20440;-76
2023/11/15 13:06:37;;;;;;;4.65;2.00;;;10.00;99.90;;;;;;4946636;28;20359;-77
2023/11/15 13:09:23;;;;;;;6.65;2.42;;;10.00;99.90;;;;;;4908996;29;20560;-76
2023/11/15 13:12:24;;;;;;;8.27;2.70;;;10.00;99.90;;;;;;4924218;29;20465;-76
2023/11/15 13:15:17;;;;;;;15.20;3.75;;;10.00;99.90;;;;;;4907671;29;20087;-76
2023/11/15 13:18:06;;;;;;;5.55;2.30;;;10.00;99.90;;;;;;4919416;29;20039;-76
2023/11/15 13:20:57;;;;;;;9.45;2.70;;;10.10;99.90;;;;;;4906159;29;20048;-76
2023/11/15 13:23:45;;;;;;;6.22;2.80;;;10.00;99.90;;;;;;4906099;29;20478;-76
2023/11/15 13:26:32;;;;;;;;;;;9.90;99.90;;;;;;4895967;29;20040;-76
2023/11/15 13:29:21;;;;;;;7.50;2.45;;;9.90;99.90;;;;;;4919232;29;19937;-76
2023/11/15 13:32:10;;;;;;;8.25;3.30;;;9.90;99.90;;;;;;4913356;29;20488;-76
2023/11/15 13:35:00;;;;;;;8.15;3.28;;;10.00;99.90;;;;;;4925108;29;20039;-76
2023/11/15 13:37:48;;;;;;;5.93;2.92;;;9.90;99.90;;;;;;4916915;29;20511;-76
2023/11/15 13:40:37;;;;;;;5.57;2.63;;;9.90;99.90;;;;;;4924910;29;20039;-76
2023/11/15 13:43:24;;;;;;;7.93;2.88;;;9.90;99.90;;;;;;4921162;29;20466;-77
2023/11/15 13:46:11;;;;;;;7.05;2.28;;;9.90;99.90;;;;;;4893300;29;20055;-76
2023/11/15 14:00:13;;;;;;;3.47;1.60;;;9.80;99.90;;;;;;4928771;29;20477;-77
2023/11/15 14:03:09;;;;;;;3.88;1.67;;;9.80;99.90;;;;;;4902700;29;20074;-76
2023/11/15 14:06:04;;;;;;;3.92;1.60;;;9.80;99.90;;;;;;4892747;29;20099;-76
2023/11/15 14:08:51;;;;;;;4.53;1.63;;;9.70;99.90;;;;;;4900803;29;20035;-76
2023/11/15 14:11:37;;;;;;;3.65;2.00;;;9.80;99.90;;;;;;4910128;29;20044;-76
2023/11/15 14:14:25;;;;;;;3.75;1.88;;;9.80;99.90;;;;;;4910776;29;20043;-77
2023/11/15 14:17:11;;;;;;;8.80;2.55;;;9.80;99.90;;;;;;4925248;29;20079;-76
2023/11/15 14:19:59;;;;;;;3.75;1.95;;;9.80;99.90;;;;;;4924729;29;20058;-76
2023/11/15 14:22:45;;;;;;;7.03;2.17;;;9.70;99.90;;;;;;4926417;29;20091;-76
2023/11/15 14:25:34;;;;;;;4.32;2.03;;;9.70;99.90;;;;;;4916750;29;20058;-76
2023/11/15 14:28:20;;;;;;;7.75;2.08;;;9.80;99.90;;;;;;4918216;29;20118;-76
2023/11/15 14:31:06;;;;;;;4.50;2.00;;;9.70;99.90;;;;;;4935290;29;20039;-76
2023/11/15 14:33:56;;;;;;;5.45;1.95;;;9.80;99.90;;;;;;4933094;29;20492;-78
2023/11/15 14:36:45;;;;;;;8.10;3.63;;;9.70;99.90;;;;;;4910472;29;20043;-76
2023/11/15 14:39:33;;;;;;;6.28;2.33;;;9.80;99.90;;;;;;4923977;29;20068;-77
2023/11/15 14:42:19;;;;;;;6.43;2.50;;;9.70;99.90;;;;;;4911967;29;20043;-77
2023/11/15 14:45:10;;;;;;;7.05;2.92;;;9.80;99.90;;;;;;4929039;29;20160;-77
2023/11/15 14:47:59;;;;;;;6.97;3.28;;;9.80;99.90;;;;;;4923122;29;20043;-76
2023/11/15 14:50:45;;;;;;;5.47;2.80;;;9.80;99.90;;;;;;4910984;29;20131;-75
2023/11/15 14:53:40;;;;;;;6.95;2.92;;;9.80;99.90;;;;;;4922677;29;20042;-76
2023/11/15 14:56:27;;;;;;;8.18;3.15;;;9.80;99.90;;;;;;4916671;29;20074;-75
2023/11/15 14:59:13;;;;;;;7.28;3.13;;;9.80;99.90;;;;;;4917488;29;20081;-75
2023/11/15 15:02:01;;;;;;;5.32;2.60;;;9.80;99.90;;;;;;4929330;29;20039;-75
2023/11/15 15:04:47;;;;;;;3.13;1.98;;;9.70;99.90;;;;;;4930605;29;20043;-75
2023/11/15 15:07:33;;;;;;;3.45;2.08;;;9.70;99.90;;;;;;4934889;29;20051;-75
2023/11/15 15:10:19;;;;;;;3.22;1.60;;;9.70;99.90;;;;;;4916325;29;20043;-76
2023/11/15 15:13:09;;;;;;;2.13;1.20;;;9.70;99.90;;;;;;4930250;29;20075;-76
2023/11/15 15:15:55;;;;;;;2.08;1.02;;;9.70;99.90;;;;;;4924635;29;20035;-76
2023/11/15 15:18:42;;;;;;;2.70;0.95;;;9.70;99.90;;;;;;4914472;29;20032;-76
2023/11/15 15:21:30;;;;;;;2.05;0.90;;;9.60;99.90;;;;;;4915955;29;20043;-76
2023/11/15 15:24:16;;;;;;;2.38;1.13;;;9.60;99.90;;;;;;4943655;29;20042;-76
2023/11/15 15:27:02;;;;;;;4.78;1.25;;;9.60;99.90;;;;;;4933608;29;20078;-76
2023/11/15 15:29:48;;;;;;;5.10;1.52;;;9.60;99.90;;;;;;4901903;29;20110;-76
2023/11/15 15:32:34;;;;;;;3.03;0.93;;;9.60;99.90;;;;;;4927332;29;20138;-76
2023/11/15 15:35:20;;;;;;;3.47;0.80;;;9.60;99.90;;;;;;4934044;29;20102;-76
2023/11/15 15:38:07;;;;;;;3.00;0.90;;;9.60;99.90;;;;;;4902384;29;20040;-76
2023/11/15 15:40:53;;;;;;;3.08;1.02;;;9.60;99.90;;;;;;4928923;29;20039;-76
2023/11/15 15:43:39;;;;;;;3.00;0.82;;;9.60;99.90;;;;;;4926042;29;20043;-77
2023/11/15 15:46:25;;;;;;;4.07;0.93;;;9.60;99.90;;;;;;4914235;29;20047;-76
2023/11/15 15:49:11;;;;;;;2.65;0.80;;;9.60;99.90;;;;;;4947121;29;20130;-76
2023/11/15 15:51:58;;;;;;;2.97;1.10;;;9.60;99.90;;;;;;4932994;29;20046;-76
2023/11/15 15:54:44;;;;;;;5.57;1.25;;;9.60;99.90;;;;;;4931237;29;20472;-76
2023/11/15 15:57:30;;;;;;;4.30;1.55;;;9.60;99.90;;;;;;4946122;29;20054;-75
2023/11/15 16:00:16;;;;;;;4.50;1.10;;;9.50;99.90;;;;;;4930613;29;20043;-75
2023/11/15 16:03:03;;;;;;;3.97;1.23;;;9.50;99.90;;;;;;4937040;29;20039;-76
2023/11/15 16:05:49;;;;;;;4.07;1.02;;;9.40;99.90;;;;;;4932328;29;20039;-75
2023/11/15 16:08:36;;;;;;;3.30;0.95;;;9.40;99.90;;;;;;4918957;29;20558;-76
2023/11/15 16:11:22;;;;;;;3.20;1.58;;;9.40;99.90;;;;;;4932381;29;20066;-76
2023/11/15 16:14:09;;;;;;;3.30;1.30;;;9.30;99.90;;;;;;4929018;29;20036;-76
2023/11/15 16:16:56;;;;;;;3.83;1.50;;;9.30;99.90;;;;;;4907808;29;20050;-75
2023/11/15 16:19:42;;;;;;;4.57;1.70;;;9.30;99.90;;;;;;4920294;29;20117;-76
2023/11/15 16:22:29;;;;;;;4.75;1.80;;;9.20;99.90;;;;;;4926978;29;20102;-76
2023/11/15 16:25:15;;;;;;;3.80;1.30;;;9.30;99.90;;;;;;4937803;29;20334;-76
2023/11/15 16:28:01;;;;;;;4.15;1.52;;;9.30;99.90;;;;;;4913690;29;20075;-76
2023/11/15 16:30:47;;;;;;;5.43;1.60;;;9.30;99.90;;;;;;4920445;29;20168;-76
2023/11/15 16:33:34;;;;;;;3.15;1.70;;;9.30;99.90;;;;;;4958119;29;20035;-76
2023/11/15 16:36:21;;;;;;;4.25;1.80;;;9.30;99.90;;;;;;4957159;28;20456;-75
2023/11/15 16:39:13;;;;;;;5.80;1.35;;;9.20;99.90;;;;;;4947220;29;20043;-76
2023/11/15 16:42:01;;;;;;;7.03;2.35;;;9.20;99.90;;;;;;4931100;28;20051;-77
2023/11/15 16:44:49;;;;;;;2.55;1.35;;;9.20;99.90;;;;;;4949072;28;20031;-76
2023/11/15 16:47:36;;;;;;;5.75;1.60;;;9.20;99.90;;;;;;4923122;28;20051;-76
2023/11/15 16:50:23;;;;;;;4.32;1.80;;;9.10;99.90;;;;;;4934239;29;20035;-76
2023/11/15 16:53:10;;;;;;;4.95;1.50;;;9.10;99.90;;;;;;4923074;29;20047;-76
2023/11/15 16:55:57;;;;;;;3.28;1.27;;;9.10;99.90;;;;;;4913557;29;20086;-76
2023/11/15 16:58:43;;;;;;;6.90;1.65;;;9.10;99.90;;;;;;4917161;29;20044;-76
2023/11/15 17:01:30;;;;;;;4.65;1.08;;;9.10;99.90;;;;;;4910878;29;20591;-76
2023/11/15 17:04:16;;;;;;;3.83;1.50;;;9.10;99.90;;;;;;4926126;29;20043;-76
2023/11/15 17:07:02;;;;;;;4.20;1.70;;;9.10;99.90;;;;;;4903560;29;20055;-76
2023/11/15 17:09:51;;;;;;;2.85;1.33;;;9.10;99.90;;;;;;4922972;29;20524;-76
2023/11/15 17:12:38;;;;;;;6.53;1.60;;;9.10;99.90;;;;;;4928001;29;20671;-76
2023/11/15 17:15:32;;;;;;;3.95;1.50;;;9.10;99.90;;;;;;4957811;28;20130;-76
2023/11/15 17:18:18;;;;;;;4.03;1.35;;;9.10;99.90;;;;;;4934003;29;20043;-76
2023/11/15 17:21:05;;;;;;;6.07;1.90;;;9.00;99.90;;;;;;4926501;28;20487;-76
2023/11/15 17:23:52;;;;;;;4.47;1.73;;;9.00;99.90;;;;;;4939423;28;20114;-76
2023/11/15 17:26:39;;;;;;;6.33;2.10;;;9.00;99.90;;;;;;4918795;29;20071;-77
2023/11/15 17:29:25;;;;;;;4.53;1.70;;;9.00;99.90;;;;;;4921476;29;20074;-76
2023/11/15 17:32:11;;;;;;;6.95;1.98;;;9.00;99.90;;;;;;4933629;29;20047;-76
2023/11/15 17:35:05;;;;;;;6.07;2.47;;;9.00;99.90;;;;;;4905353;29;20050;-76
2023/11/15 17:37:54;;;;;;;4.70;2.58;;;9.00;99.90;;;;;;4916021;29;20040;-76